sensor_id;sensor_type;location;lat;lon;timestamp;P1;durP1;ratioP1;P2;durP2;ratioP2
12972;SDS011;6551;51.056;9.466;2023-02-28T00:00:36;2.07;;;1.60;;
12972;SDS011;6551;51.056;9.466;2023-02-28T00:03:04;1.83;;;1.30;;
12972;SDS011;6551;51.056;9.466;2023-02-28T00:05:30;3.70;;;1.70;;
12972;SDS011;6551;51.056;9.466;2023-02-28T00:07:56;1.60;;;1.40;;
12972;SDS011;6551;51.056;9.466;2023-02-28T00:10:23;2.37;;;1.50;;
12972;SDS011;6551;51.056;9.466;2023-02-28T00:12:54;2.40;;;1.50;;
12972;SDS011;6551;51.056;9.466;2023-02-28T00:15:24;4.83;;;1.83;;
12972;SDS011;6551;51.056;9.466;2023-02-28T00:17:50;2.67;;;1.77;;
12972;SDS011;6551;51.056;9.466;2023-02-28T00:20:17;2.90;;;1.60;;
12972;SDS011;6551;51.056;9.466;2023-02-28T00:22:49;3.77;;;1.70;;
12972;SDS011;6551;51.056;9.466;2023-02-28T00:25:18;2.83;;;2.00;;
12972;SDS011;6551;51.056;9.466;2023-02-28T00:27:49;3.37;;;1.80;;
12972;SDS011;6551;51.056;9.466;2023-02-28T00:30:17;2.87;;;2.00;;
12972;SDS011;6551;51.056;9.466;2023-02-28T00:32:45;3.10;;;2.00;;
12972;SDS011;6551;51.056;9.466;2023-02-28T00:35:11;4.17;;;1.90;;
12972;SDS011;6551;51.056;9.466;2023-02-28T00:37:38;1.67;;;1.50;;
12972;SDS011;6551;51.056;9.466;2023-02-28T00:40:05;2.80;;;1.70;;
12972;SDS011;6551;51.056;9.466;2023-02-28T00:42:34;1.93;;;1.40;;
12972;SDS011;6551;51.056;9.466;2023-02-28T00:45:00;2.33;;;1.73;;
12972;SDS011;6551;51.056;9.466;2023-02-28T00:47:29;3.53;;;2.00;;
12972;SDS011;6551;51.056;9.466;2023-02-28T00:49:55;2.27;;;1.53;;
12972;SDS011;6551;51.056;9.466;2023-02-28T00:52:21;2.57;;;1.47;;
12972;SDS011;6551;51.056;9.466;2023-02-28T00:54:47;5.07;;;1.90;;
12972;SDS011;6551;51.056;9.466;2023-02-28T00:57:13;4.10;;;2.63;;
12972;SDS011;6551;51.056;9.466;2023-02-28T00:59:39;5.47;;;2.73;;
12972;SDS011;6551;51.056;9.466;2023-02-28T01:02:05;4.63;;;2.60;;
12972;SDS011;6551;51.056;9.466;2023-02-28T01:04:31;3.17;;;2.60;;
12972;SDS011;6551;51.056;9.466;2023-02-28T01:06:59;1.60;;;1.50;;
12972;SDS011;6551;51.056;9.466;2023-02-28T01:09:25;2.30;;;1.60;;
12972;SDS011;6551;51.056;9.466;2023-02-28T01:11:50;2.13;;;1.77;;
12972;SDS011;6551;51.056;9.466;2023-02-28T01:14:18;2.63;;;2.03;;
12972;SDS011;6551;51.056;9.466;2023-02-28T01:16:44;3.30;;;2.00;;
12972;SDS011;6551;51.056;9.466;2023-02-28T01:19:09;2.87;;;1.70;;
12972;SDS011;6551;51.056;9.466;2023-02-28T01:21:38;4.07;;;2.00;;
12972;SDS011;6551;51.056;9.466;2023-02-28T01:24:04;2.23;;;1.27;;
12972;SDS011;6551;51.056;9.466;2023-02-28T01:26:30;2.43;;;1.47;;
12972;SDS011;6551;51.056;9.466;2023-02-28T01:28:57;2.87;;;1.70;;
12972;SDS011;6551;51.056;9.466;2023-02-28T01:31:23;3.30;;;1.60;;
12972;SDS011;6551;51.056;9.466;2023-02-28T01:33:50;3.33;;;1.87;;
12972;SDS011;6551;51.056;9.466;2023-02-28T01:36:19;2.23;;;1.70;;
12972;SDS011;6551;51.056;9.466;2023-02-28T01:38:48;2.70;;;1.67;;
12972;SDS011;6551;51.056;9.466;2023-02-28T01:41:19;3.33;;;2.53;;
12972;SDS011;6551;51.056;9.466;2023-02-28T01:44:01;5.30;;;1.97;;
12972;SDS011;6551;51.056;9.466;2023-02-28T01:46:51;3.83;;;2.07;;
12972;SDS011;6551;51.056;9.466;2023-02-28T01:49:16;2.80;;;1.93;;
12972;SDS011;6551;51.056;9.466;2023-02-28T01:51:47;3.17;;;1.90;;
12972;SDS011;6551;51.056;9.466;2023-02-28T01:54:18;3.87;;;1.83;;
12972;SDS011;6551;51.056;9.466;2023-02-28T01:56:50;4.87;;;2.20;;
12972;SDS011;6551;51.056;9.466;2023-02-28T01:59:42;14.70;;;5.30;;
12972;SDS011;6551;51.056;9.466;2023-02-28T02:02:36;6.47;;;2.10;;
12972;SDS011;6551;51.056;9.466;2023-02-28T02:05:07;2.07;;;1.73;;
12972;SDS011;6551;51.056;9.466;2023-02-28T02:07:42;2.17;;;1.50;;
12972;SDS011;6551;51.056;9.466;2023-02-28T02:10:14;4.07;;;2.00;;
12972;SDS011;6551;51.056;9.466;2023-02-28T02:13:01;2.47;;;1.90;;
12972;SDS011;6551;51.056;9.466;2023-02-28T02:16:18;4.43;;;2.70;;
12972;SDS011;6551;51.056;9.466;2023-02-28T02:43:11;3.73;;;2.07;;
12972;SDS011;6551;51.056;9.466;2023-02-28T02:45:58;4.43;;;2.00;;
12972;SDS011;6551;51.056;9.466;2023-02-28T02:48:32;2.27;;;1.77;;
12972;SDS011;6551;51.056;9.466;2023-02-28T02:51:02;4.03;;;1.60;;
12972;SDS011;6551;51.056;9.466;2023-02-28T02:53:38;2.03;;;1.80;;
12972;SDS011;6551;51.056;9.466;2023-02-28T02:56:29;2.27;;;1.80;;
12972;SDS011;6551;51.056;9.466;2023-02-28T02:59:02;2.10;;;1.73;;
12972;SDS011;6551;51.056;9.466;2023-02-28T03:01:36;2.30;;;1.50;;
12972;SDS011;6551;51.056;9.466;2023-02-28T03:04:09;2.40;;;1.50;;
12972;SDS011;6551;51.056;9.466;2023-02-28T03:06:40;2.30;;;1.73;;
12972;SDS011;6551;51.056;9.466;2023-02-28T03:09:06;3.13;;;1.70;;
12972;SDS011;6551;51.056;9.466;2023-02-28T03:11:32;3.13;;;2.00;;
12972;SDS011;6551;51.056;9.466;2023-02-28T03:30:56;4.50;;;2.00;;
12972;SDS011;6551;51.056;9.466;2023-02-28T03:33:39;4.50;;;2.30;;
12972;SDS011;6551;51.056;9.466;2023-02-28T03:36:13;3.90;;;2.37;;
12972;SDS011;6551;51.056;9.466;2023-02-28T03:39:19;3.60;;;2.17;;
12972;SDS011;6551;51.056;9.466;2023-02-28T03:41:48;3.60;;;2.30;;
12972;SDS011;6551;51.056;9.466;2023-02-28T03:44:35;3.13;;;2.40;;
12972;SDS011;6551;51.056;9.466;2023-02-28T03:50:00;3.43;;;2.20;;
12972;SDS011;6551;51.056;9.466;2023-02-28T03:52:53;4.27;;;2.07;;
12972;SDS011;6551;51.056;9.466;2023-02-28T03:55:28;5.73;;;2.87;;
12972;SDS011;6551;51.056;9.466;2023-02-28T03:58:05;2.77;;;1.70;;
12972;SDS011;6551;51.056;9.466;2023-02-28T04:00:50;4.87;;;1.80;;
12972;SDS011;6551;51.056;9.466;2023-02-28T04:03:33;3.27;;;1.90;;
12972;SDS011;6551;51.056;9.466;2023-02-28T04:06:00;3.63;;;1.90;;
12972;SDS011;6551;51.056;9.466;2023-02-28T04:08:29;2.80;;;2.03;;
12972;SDS011;6551;51.056;9.466;2023-02-28T04:11:06;2.87;;;1.90;;
12972;SDS011;6551;51.056;9.466;2023-02-28T04:13:54;1.87;;;1.47;;
12972;SDS011;6551;51.056;9.466;2023-02-28T04:16:19;2.20;;;1.67;;
12972;SDS011;6551;51.056;9.466;2023-02-28T04:18:45;2.70;;;1.90;;
12972;SDS011;6551;51.056;9.466;2023-02-28T04:21:11;1.90;;;1.50;;
12972;SDS011;6551;51.056;9.466;2023-02-28T04:23:37;2.77;;;1.60;;
12972;SDS011;6551;51.056;9.466;2023-02-28T04:26:04;2.00;;;1.40;;
12972;SDS011;6551;51.056;9.466;2023-02-28T04:28:32;2.90;;;1.93;;
12972;SDS011;6551;51.056;9.466;2023-02-28T04:31:01;1.80;;;1.70;;
12972;SDS011;6551;51.056;9.466;2023-02-28T04:33:29;2.50;;;1.60;;
12972;SDS011;6551;51.056;9.466;2023-02-28T04:36:06;3.30;;;1.83;;
12972;SDS011;6551;51.056;9.466;2023-02-28T04:38:37;3.60;;;1.37;;
12972;SDS011;6551;51.056;9.466;2023-02-28T04:41:04;2.67;;;1.90;;
12972;SDS011;6551;51.056;9.466;2023-02-28T04:43:31;2.67;;;1.53;;
12972;SDS011;6551;51.056;9.466;2023-02-28T04:46:00;3.00;;;1.83;;
12972;SDS011;6551;51.056;9.466;2023-02-28T04:48:29;3.63;;;1.80;;
12972;SDS011;6551;51.056;9.466;2023-02-28T04:51:02;2.70;;;2.00;;
12972;SDS011;6551;51.056;9.466;2023-02-28T04:53:32;2.90;;;1.60;;
12972;SDS011;6551;51.056;9.466;2023-02-28T04:55:58;3.57;;;1.60;;
12972;SDS011;6551;51.056;9.466;2023-02-28T04:58:23;2.67;;;1.83;;
12972;SDS011;6551;51.056;9.466;2023-02-28T05:00:51;3.60;;;2.00;;
12972;SDS011;6551;51.056;9.466;2023-02-28T05:03:17;3.67;;;1.50;;
12972;SDS011;6551;51.056;9.466;2023-02-28T05:05:45;2.33;;;1.57;;
12972;SDS011;6551;51.056;9.466;2023-02-28T05:08:11;2.23;;;1.70;;
12972;SDS011;6551;51.056;9.466;2023-02-28T05:10:39;3.17;;;1.80;;
12972;SDS011;6551;51.056;9.466;2023-02-28T05:13:06;2.10;;;1.60;;
12972;SDS011;6551;51.056;9.466;2023-02-28T05:15:35;3.10;;;1.40;;
12972;SDS011;6551;51.056;9.466;2023-02-28T05:18:02;2.77;;;1.57;;
12972;SDS011;6551;51.056;9.466;2023-02-28T05:20:28;3.00;;;1.37;;
12972;SDS011;6551;51.056;9.466;2023-02-28T05:22:55;3.00;;;1.67;;
12972;SDS011;6551;51.056;9.466;2023-02-28T05:25:22;2.67;;;1.60;;
12972;SDS011;6551;51.056;9.466;2023-02-28T05:27:50;2.40;;;1.80;;
12972;SDS011;6551;51.056;9.466;2023-02-28T05:30:17;2.90;;;1.60;;
12972;SDS011;6551;51.056;9.466;2023-02-28T05:32:48;3.80;;;1.90;;
12972;SDS011;6551;51.056;9.466;2023-02-28T05:35:17;3.60;;;2.00;;
12972;SDS011;6551;51.056;9.466;2023-02-28T05:37:44;1.60;;;1.30;;
12972;SDS011;6551;51.056;9.466;2023-02-28T05:40:10;3.80;;;2.20;;
12972;SDS011;6551;51.056;9.466;2023-02-28T05:42:38;2.20;;;1.60;;
12972;SDS011;6551;51.056;9.466;2023-02-28T05:45:05;3.23;;;1.53;;
12972;SDS011;6551;51.056;9.466;2023-02-28T05:47:31;6.67;;;3.27;;
12972;SDS011;6551;51.056;9.466;2023-02-28T05:49:57;7.40;;;3.30;;
12972;SDS011;6551;51.056;9.466;2023-02-28T05:52:23;2.07;;;1.20;;
12972;SDS011;6551;51.056;9.466;2023-02-28T05:54:49;4.67;;;2.60;;
12972;SDS011;6551;51.056;9.466;2023-02-28T05:57:15;4.47;;;2.07;;
12972;SDS011;6551;51.056;9.466;2023-02-28T05:59:40;2.50;;;1.87;;
12972;SDS011;6551;51.056;9.466;2023-02-28T06:02:10;2.23;;;1.33;;
12972;SDS011;6551;51.056;9.466;2023-02-28T06:04:38;3.10;;;1.67;;
12972;SDS011;6551;51.056;9.466;2023-02-28T06:07:11;3.20;;;1.90;;
12972;SDS011;6551;51.056;9.466;2023-02-28T06:09:37;4.40;;;2.80;;
12972;SDS011;6551;51.056;9.466;2023-02-28T06:12:04;2.63;;;1.50;;
12972;SDS011;6551;51.056;9.466;2023-02-28T06:14:32;6.17;;;2.77;;
12972;SDS011;6551;51.056;9.466;2023-02-28T06:16:59;3.63;;;2.30;;
12972;SDS011;6551;51.056;9.466;2023-02-28T06:19:26;2.20;;;1.27;;
12972;SDS011;6551;51.056;9.466;2023-02-28T06:21:52;4.27;;;1.60;;
12972;SDS011;6551;51.056;9.466;2023-02-28T06:24:23;7.20;;;4.60;;
12972;SDS011;6551;51.056;9.466;2023-02-28T06:26:52;2.13;;;1.30;;
12972;SDS011;6551;51.056;9.466;2023-02-28T06:29:18;2.17;;;1.27;;
12972;SDS011;6551;51.056;9.466;2023-02-28T06:31:44;3.07;;;1.70;;
12972;SDS011;6551;51.056;9.466;2023-02-28T06:34:11;2.50;;;1.43;;
12972;SDS011;6551;51.056;9.466;2023-02-28T06:36:38;2.13;;;1.27;;
12972;SDS011;6551;51.056;9.466;2023-02-28T06:39:06;2.43;;;1.70;;
12972;SDS011;6551;51.056;9.466;2023-02-28T06:41:36;2.93;;;1.57;;
12972;SDS011;6551;51.056;9.466;2023-02-28T06:44:05;4.73;;;1.67;;
12972;SDS011;6551;51.056;9.466;2023-02-28T06:46:38;4.30;;;1.90;;
12972;SDS011;6551;51.056;9.466;2023-02-28T06:49:09;1.70;;;1.40;;
12972;SDS011;6551;51.056;9.466;2023-02-28T06:51:37;8.97;;;2.17;;
12972;SDS011;6551;51.056;9.466;2023-02-28T06:54:06;9.10;;;4.50;;
12972;SDS011;6551;51.056;9.466;2023-02-28T06:56:35;11.67;;;6.07;;
12972;SDS011;6551;51.056;9.466;2023-02-28T06:59:02;21.60;;;10.00;;
12972;SDS011;6551;51.056;9.466;2023-02-28T07:01:29;5.00;;;2.80;;
12972;SDS011;6551;51.056;9.466;2023-02-28T07:03:57;4.07;;;2.90;;
12972;SDS011;6551;51.056;9.466;2023-02-28T07:06:23;7.63;;;3.10;;
12972;SDS011;6551;51.056;9.466;2023-02-28T07:08:51;12.80;;;5.67;;
12972;SDS011;6551;51.056;9.466;2023-02-28T07:11:19;85.70;;;24.80;;
12972;SDS011;6551;51.056;9.466;2023-02-28T07:13:49;33.77;;;11.70;;
12972;SDS011;6551;51.056;9.466;2023-02-28T07:16:16;22.63;;;10.40;;
12972;SDS011;6551;51.056;9.466;2023-02-28T07:18:42;23.30;;;11.50;;
12972;SDS011;6551;51.056;9.466;2023-02-28T07:21:08;21.53;;;9.60;;
12972;SDS011;6551;51.056;9.466;2023-02-28T07:23:37;27.33;;;13.20;;
12972;SDS011;6551;51.056;9.466;2023-02-28T07:26:04;24.87;;;11.03;;
12972;SDS011;6551;51.056;9.466;2023-02-28T07:28:31;21.10;;;8.87;;
12972;SDS011;6551;51.056;9.466;2023-02-28T07:31:02;12.70;;;6.77;;
12972;SDS011;6551;51.056;9.466;2023-02-28T07:33:32;17.83;;;8.33;;
12972;SDS011;6551;51.056;9.466;2023-02-28T07:36:00;9.67;;;4.70;;
12972;SDS011;6551;51.056;9.466;2023-02-28T07:38:47;13.53;;;6.63;;
12972;SDS011;6551;51.056;9.466;2023-02-28T07:41:18;7.67;;;2.90;;
12972;SDS011;6551;51.056;9.466;2023-02-28T07:43:48;9.37;;;4.27;;
12972;SDS011;6551;51.056;9.466;2023-02-28T07:46:15;3.83;;;2.40;;
12972;SDS011;6551;51.056;9.466;2023-02-28T07:48:43;3.57;;;2.67;;
12972;SDS011;6551;51.056;9.466;2023-02-28T07:51:10;3.40;;;2.47;;
12972;SDS011;6551;51.056;9.466;2023-02-28T07:53:37;4.22;;;2.35;;
12972;SDS011;6551;51.056;9.466;2023-02-28T07:56:03;3.00;;;2.23;;
12972;SDS011;6551;51.056;9.466;2023-02-28T07:58:29;4.23;;;2.40;;
12972;SDS011;6551;51.056;9.466;2023-02-28T08:00:57;6.13;;;3.73;;
12972;SDS011;6551;51.056;9.466;2023-02-28T08:03:32;4.97;;;2.90;;
12972;SDS011;6551;51.056;9.466;2023-02-28T08:05:58;3.50;;;2.50;;
12972;SDS011;6551;51.056;9.466;2023-02-28T08:08:25;5.23;;;2.73;;
12972;SDS011;6551;51.056;9.466;2023-02-28T08:10:54;2.90;;;2.00;;
12972;SDS011;6551;51.056;9.466;2023-02-28T08:13:19;4.83;;;2.87;;
12972;SDS011;6551;51.056;9.466;2023-02-28T08:15:45;5.93;;;2.13;;
12972;SDS011;6551;51.056;9.466;2023-02-28T08:18:13;6.53;;;4.40;;
12972;SDS011;6551;51.056;9.466;2023-02-28T08:20:39;2.40;;;1.90;;
12972;SDS011;6551;51.056;9.466;2023-02-28T08:23:06;2.90;;;2.00;;
12972;SDS011;6551;51.056;9.466;2023-02-28T08:25:31;3.57;;;2.73;;
12972;SDS011;6551;51.056;9.466;2023-02-28T08:27:57;2.43;;;1.90;;
12972;SDS011;6551;51.056;9.466;2023-02-28T08:30:23;3.10;;;2.07;;
12972;SDS011;6551;51.056;9.466;2023-02-28T08:32:50;3.03;;;2.10;;
12972;SDS011;6551;51.056;9.466;2023-02-28T08:35:17;3.67;;;2.17;;
12972;SDS011;6551;51.056;9.466;2023-02-28T08:37:42;3.07;;;2.00;;
12972;SDS011;6551;51.056;9.466;2023-02-28T08:40:08;6.37;;;2.40;;
12972;SDS011;6551;51.056;9.466;2023-02-28T08:42:38;4.57;;;2.20;;
12972;SDS011;6551;51.056;9.466;2023-02-28T08:45:05;2.17;;;1.40;;
12972;SDS011;6551;51.056;9.466;2023-02-28T08:47:31;4.17;;;2.40;;
12972;SDS011;6551;51.056;9.466;2023-02-28T08:49:57;3.67;;;2.10;;
12972;SDS011;6551;51.056;9.466;2023-02-28T08:52:23;3.03;;;2.10;;
12972;SDS011;6551;51.056;9.466;2023-02-28T08:54:50;3.23;;;2.40;;
12972;SDS011;6551;51.056;9.466;2023-02-28T08:57:17;6.07;;;3.60;;
12972;SDS011;6551;51.056;9.466;2023-02-28T08:59:43;6.13;;;4.33;;
12972;SDS011;6551;51.056;9.466;2023-02-28T09:02:09;5.13;;;2.70;;
12972;SDS011;6551;51.056;9.466;2023-02-28T09:04:39;4.93;;;2.90;;
12972;SDS011;6551;51.056;9.466;2023-02-28T09:07:06;7.33;;;3.30;;
12972;SDS011;6551;51.056;9.466;2023-02-28T09:09:34;7.47;;;3.93;;
12972;SDS011;6551;51.056;9.466;2023-02-28T09:12:23;3.73;;;2.20;;
12972;SDS011;6551;51.056;9.466;2023-02-28T09:14:51;7.33;;;3.70;;
12972;SDS011;6551;51.056;9.466;2023-02-28T09:17:18;11.43;;;5.80;;
12972;SDS011;6551;51.056;9.466;2023-02-28T09:19:45;3.73;;;2.50;;
12972;SDS011;6551;51.056;9.466;2023-02-28T09:22:15;3.77;;;2.77;;
12972;SDS011;6551;51.056;9.466;2023-02-28T09:24:41;6.13;;;2.77;;
12972;SDS011;6551;51.056;9.466;2023-02-28T09:27:07;4.87;;;3.23;;
12972;SDS011;6551;51.056;9.466;2023-02-28T09:29:33;4.73;;;2.90;;
12972;SDS011;6551;51.056;9.466;2023-02-28T09:32:02;6.40;;;3.40;;
12972;SDS011;6551;51.056;9.466;2023-02-28T09:34:31;7.70;;;3.13;;
12972;SDS011;6551;51.056;9.466;2023-02-28T09:36:57;4.37;;;2.73;;
12972;SDS011;6551;51.056;9.466;2023-02-28T09:39:23;5.37;;;4.10;;
12972;SDS011;6551;51.056;9.466;2023-02-28T09:41:51;8.07;;;4.43;;
12972;SDS011;6551;51.056;9.466;2023-02-28T09:44:33;8.63;;;4.33;;
12972;SDS011;6551;51.056;9.466;2023-02-28T09:47:25;7.00;;;3.47;;
12972;SDS011;6551;51.056;9.466;2023-02-28T09:49:58;4.27;;;3.20;;
12972;SDS011;6551;51.056;9.466;2023-02-28T09:52:41;3.43;;;2.70;;
12972;SDS011;6551;51.056;9.466;2023-02-28T09:55:30;8.70;;;3.33;;
12972;SDS011;6551;51.056;9.466;2023-02-28T09:58:13;4.47;;;2.90;;
12972;SDS011;6551;51.056;9.466;2023-02-28T10:01:31;9.30;;;3.57;;
12972;SDS011;6551;51.056;9.466;2023-02-28T10:04:42;4.60;;;3.20;;
12972;SDS011;6551;51.056;9.466;2023-02-28T10:07:22;8.33;;;5.40;;
12972;SDS011;6551;51.056;9.466;2023-02-28T10:10:21;7.43;;;4.23;;
12972;SDS011;6551;51.056;9.466;2023-02-28T10:16:01;4.13;;;3.20;;
12972;SDS011;6551;51.056;9.466;2023-02-28T10:18:47;4.57;;;2.70;;
12972;SDS011;6551;51.056;9.466;2023-02-28T10:21:28;4.43;;;2.40;;
12972;SDS011;6551;51.056;9.466;2023-02-28T10:24:29;3.70;;;2.70;;
12972;SDS011;6551;51.056;9.466;2023-02-28T10:27:18;4.03;;;2.73;;
12972;SDS011;6551;51.056;9.466;2023-02-28T10:29:49;3.77;;;2.43;;
12972;SDS011;6551;51.056;9.466;2023-02-28T10:32:24;4.90;;;2.50;;
12972;SDS011;6551;51.056;9.466;2023-02-28T10:34:59;3.87;;;2.50;;
12972;SDS011;6551;51.056;9.466;2023-02-28T10:37:44;4.00;;;2.50;;
12972;SDS011;6551;51.056;9.466;2023-02-28T10:42:54;3.00;;;2.23;;
12972;SDS011;6551;51.056;9.466;2023-02-28T10:45:34;5.13;;;2.57;;
12972;SDS011;6551;51.056;9.466;2023-02-28T10:50:51;4.57;;;3.17;;
12972;SDS011;6551;51.056;9.466;2023-02-28T10:56:33;3.83;;;2.70;;
12972;SDS011;6551;51.056;9.466;2023-02-28T11:01:40;3.67;;;2.43;;
12972;SDS011;6551;51.056;9.466;2023-02-28T11:07:01;4.50;;;2.70;;
12972;SDS011;6551;51.056;9.466;2023-02-28T11:09:46;3.37;;;2.60;;
12972;SDS011;6551;51.056;9.466;2023-02-28T11:17:58;3.27;;;2.57;;
12972;SDS011;6551;51.056;9.466;2023-02-28T11:20:32;6.80;;;3.90;;
12972;SDS011;6551;51.056;9.466;2023-02-28T11:23:00;7.10;;;3.00;;
12972;SDS011;6551;51.056;9.466;2023-02-28T11:25:33;4.50;;;2.90;;
12972;SDS011;6551;51.056;9.466;2023-02-28T11:33:51;11.43;;;4.70;;
12972;SDS011;6551;51.056;9.466;2023-02-28T11:36:24;7.10;;;4.50;;
12972;SDS011;6551;51.056;9.466;2023-02-28T11:39:00;5.67;;;3.73;;
12972;SDS011;6551;51.056;9.466;2023-02-28T11:56:39;4.93;;;2.63;;
12972;SDS011;6551;51.056;9.466;2023-02-28T12:09:04;15.63;;;8.00;;
12972;SDS011;6551;51.056;9.466;2023-02-28T12:17:31;4.93;;;3.20;;
12972;SDS011;6551;51.056;9.466;2023-02-28T12:26:38;3.77;;;2.70;;
12972;SDS011;6551;51.056;9.466;2023-02-28T12:29:29;4.70;;;3.27;;
12972;SDS011;6551;51.056;9.466;2023-02-28T12:33:02;4.87;;;3.23;;
12972;SDS011;6551;51.056;9.466;2023-02-28T12:40:55;6.20;;;3.33;;
12972;SDS011;6551;51.056;9.466;2023-02-28T12:43:34;7.20;;;3.57;;
12972;SDS011;6551;51.056;9.466;2023-02-28T12:48:53;9.10;;;5.03;;
12972;SDS011;6551;51.056;9.466;2023-02-28T12:51:24;6.93;;;4.60;;
12972;SDS011;6551;51.056;9.466;2023-02-28T12:54:26;8.57;;;4.47;;
12972;SDS011;6551;51.056;9.466;2023-02-28T12:59:44;6.93;;;3.57;;
12972;SDS011;6551;51.056;9.466;2023-02-28T13:11:25;5.43;;;3.23;;
12972;SDS011;6551;51.056;9.466;2023-02-28T13:14:04;6.03;;;3.40;;
12972;SDS011;6551;51.056;9.466;2023-02-28T13:16:48;11.53;;;3.87;;
12972;SDS011;6551;51.056;9.466;2023-02-28T13:19:23;4.83;;;3.07;;
12972;SDS011;6551;51.056;9.466;2023-02-28T13:21:59;4.67;;;2.70;;
12972;SDS011;6551;51.056;9.466;2023-02-28T13:27:35;8.63;;;3.57;;
12972;SDS011;6551;51.056;9.466;2023-02-28T13:30:59;4.03;;;2.30;;
12972;SDS011;6551;51.056;9.466;2023-02-28T13:38:45;5.23;;;2.77;;
12972;SDS011;6551;51.056;9.466;2023-02-28T13:52:02;5.53;;;3.40;;
12972;SDS011;6551;51.056;9.466;2023-02-28T14:03:16;9.13;;;4.33;;
12972;SDS011;6551;51.056;9.466;2023-02-28T14:05:46;5.43;;;3.70;;
12972;SDS011;6551;51.056;9.466;2023-02-28T14:08:33;6.50;;;4.63;;
12972;SDS011;6551;51.056;9.466;2023-02-28T14:11:04;5.93;;;3.60;;
12972;SDS011;6551;51.056;9.466;2023-02-28T14:13:49;5.90;;;3.27;;
12972;SDS011;6551;51.056;9.466;2023-02-28T14:16:23;7.80;;;3.97;;
12972;SDS011;6551;51.056;9.466;2023-02-28T14:18:58;4.33;;;3.47;;
12972;SDS011;6551;51.056;9.466;2023-02-28T14:21:34;5.90;;;3.53;;
12972;SDS011;6551;51.056;9.466;2023-02-28T14:36:43;4.20;;;3.57;;
12972;SDS011;6551;51.056;9.466;2023-02-28T14:39:21;8.17;;;4.13;;
12972;SDS011;6551;51.056;9.466;2023-02-28T14:41:50;6.80;;;3.67;;
12972;SDS011;6551;51.056;9.466;2023-02-28T14:44:18;5.70;;;3.90;;
12972;SDS011;6551;51.056;9.466;2023-02-28T14:46:49;6.20;;;4.07;;
12972;SDS011;6551;51.056;9.466;2023-02-28T14:49:24;8.53;;;5.03;;
12972;SDS011;6551;51.056;9.466;2023-02-28T14:52:19;7.40;;;4.90;;
12972;SDS011;6551;51.056;9.466;2023-02-28T14:54:55;5.37;;;3.70;;
12972;SDS011;6551;51.056;9.466;2023-02-28T14:57:44;6.00;;;3.80;;
12972;SDS011;6551;51.056;9.466;2023-02-28T15:00:27;5.03;;;4.10;;
12972;SDS011;6551;51.056;9.466;2023-02-28T15:02:55;7.33;;;4.20;;
12972;SDS011;6551;51.056;9.466;2023-02-28T15:08:15;8.57;;;4.17;;
12972;SDS011;6551;51.056;9.466;2023-02-28T15:10:43;6.93;;;4.77;;
12972;SDS011;6551;51.056;9.466;2023-02-28T15:13:44;6.67;;;4.83;;
12972;SDS011;6551;51.056;9.466;2023-02-28T15:16:31;10.03;;;5.30;;
12972;SDS011;6551;51.056;9.466;2023-02-28T15:19:20;7.77;;;4.30;;
12972;SDS011;6551;51.056;9.466;2023-02-28T15:21:56;6.13;;;3.60;;
12972;SDS011;6551;51.056;9.466;2023-02-28T15:24:41;5.43;;;4.33;;
12972;SDS011;6551;51.056;9.466;2023-02-28T15:27:20;4.93;;;3.90;;
12972;SDS011;6551;51.056;9.466;2023-02-28T15:29:54;5.97;;;4.07;;
12972;SDS011;6551;51.056;9.466;2023-02-28T15:32:33;7.63;;;4.70;;
12972;SDS011;6551;51.056;9.466;2023-02-28T15:38:03;6.80;;;5.03;;
12972;SDS011;6551;51.056;9.466;2023-02-28T15:40:52;5.27;;;4.33;;
12972;SDS011;6551;51.056;9.466;2023-02-28T15:43:57;5.17;;;4.13;;
12972;SDS011;6551;51.056;9.466;2023-02-28T15:46:14;8.07;;;4.60;;
12972;SDS011;6551;51.056;9.466;2023-02-28T15:48:56;7.80;;;4.30;;
12972;SDS011;6551;51.056;9.466;2023-02-28T15:51:23;6.67;;;4.77;;
12972;SDS011;6551;51.056;9.466;2023-02-28T15:54:00;8.27;;;5.00;;
12972;SDS011;6551;51.056;9.466;2023-02-28T15:56:31;7.03;;;4.93;;
12972;SDS011;6551;51.056;9.466;2023-02-28T15:59:03;7.03;;;5.03;;
12972;SDS011;6551;51.056;9.466;2023-02-28T16:01:33;5.27;;;4.67;;
12972;SDS011;6551;51.056;9.466;2023-02-28T16:04:01;5.27;;;4.23;;
12972;SDS011;6551;51.056;9.466;2023-02-28T16:06:36;6.37;;;4.80;;
12972;SDS011;6551;51.056;9.466;2023-02-28T16:09:42;8.37;;;4.67;;
12972;SDS011;6551;51.056;9.466;2023-02-28T16:12:08;7.47;;;5.30;;
12972;SDS011;6551;51.056;9.466;2023-02-28T16:14:39;8.97;;;5.07;;
12972;SDS011;6551;51.056;9.466;2023-02-28T16:17:31;10.80;;;5.73;;
12972;SDS011;6551;51.056;9.466;2023-02-28T16:20:00;6.03;;;5.00;;
12972;SDS011;6551;51.056;9.466;2023-02-28T16:22:31;5.10;;;4.20;;
12972;SDS011;6551;51.056;9.466;2023-02-28T16:24:58;6.57;;;4.23;;
12972;SDS011;6551;51.056;9.466;2023-02-28T16:27:31;6.73;;;4.37;;
12972;SDS011;6551;51.056;9.466;2023-02-28T16:30:02;7.57;;;4.33;;
12972;SDS011;6551;51.056;9.466;2023-02-28T16:32:33;9.63;;;4.50;;
12972;SDS011;6551;51.056;9.466;2023-02-28T16:35:02;6.20;;;4.23;;
12972;SDS011;6551;51.056;9.466;2023-02-28T16:37:35;8.27;;;4.90;;
12972;SDS011;6551;51.056;9.466;2023-02-28T16:40:02;6.67;;;4.63;;
12972;SDS011;6551;51.056;9.466;2023-02-28T16:42:28;6.93;;;5.03;;
12972;SDS011;6551;51.056;9.466;2023-02-28T16:44:56;5.70;;;3.43;;
12972;SDS011;6551;51.056;9.466;2023-02-28T16:47:23;5.63;;;4.60;;
12972;SDS011;6551;51.056;9.466;2023-02-28T16:49:52;16.20;;;8.00;;
12972;SDS011;6551;51.056;9.466;2023-02-28T16:52:20;6.17;;;4.30;;
12972;SDS011;6551;51.056;9.466;2023-02-28T16:54:47;8.63;;;5.03;;
12972;SDS011;6551;51.056;9.466;2023-02-28T16:57:19;5.47;;;4.50;;
12972;SDS011;6551;51.056;9.466;2023-02-28T16:59:49;8.20;;;4.50;;
12972;SDS011;6551;51.056;9.466;2023-02-28T17:02:16;5.73;;;4.50;;
12972;SDS011;6551;51.056;9.466;2023-02-28T17:04:46;8.63;;;5.03;;
12972;SDS011;6551;51.056;9.466;2023-02-28T17:07:14;8.93;;;4.90;;
12972;SDS011;6551;51.056;9.466;2023-02-28T17:09:43;7.77;;;4.80;;
12972;SDS011;6551;51.056;9.466;2023-02-28T17:12:12;6.27;;;4.47;;
12972;SDS011;6551;51.056;9.466;2023-02-28T17:14:39;8.43;;;4.57;;
12972;SDS011;6551;51.056;9.466;2023-02-28T17:17:07;8.87;;;4.00;;
12972;SDS011;6551;51.056;9.466;2023-02-28T17:19:47;5.07;;;3.80;;
12972;SDS011;6551;51.056;9.466;2023-02-28T17:22:15;10.47;;;5.20;;
12972;SDS011;6551;51.056;9.466;2023-02-28T17:24:42;9.43;;;5.77;;
12972;SDS011;6551;51.056;9.466;2023-02-28T17:27:13;13.40;;;7.47;;
12972;SDS011;6551;51.056;9.466;2023-02-28T17:29:39;7.57;;;6.00;;
12972;SDS011;6551;51.056;9.466;2023-02-28T17:32:04;15.17;;;7.60;;
12972;SDS011;6551;51.056;9.466;2023-02-28T17:34:32;8.97;;;5.53;;
12972;SDS011;6551;51.056;9.466;2023-02-28T17:36:58;6.57;;;5.00;;
12972;SDS011;6551;51.056;9.466;2023-02-28T17:39:23;6.47;;;5.40;;
12972;SDS011;6551;51.056;9.466;2023-02-28T17:41:53;10.57;;;5.70;;
12972;SDS011;6551;51.056;9.466;2023-02-28T17:44:21;6.20;;;4.77;;
12972;SDS011;6551;51.056;9.466;2023-02-28T17:46:50;8.73;;;5.03;;
12972;SDS011;6551;51.056;9.466;2023-02-28T17:49:20;7.47;;;5.57;;
12972;SDS011;6551;51.056;9.466;2023-02-28T17:51:47;9.70;;;5.60;;
12972;SDS011;6551;51.056;9.466;2023-02-28T17:54:15;7.67;;;5.57;;
12972;SDS011;6551;51.056;9.466;2023-02-28T17:56:41;9.03;;;6.90;;
12972;SDS011;6551;51.056;9.466;2023-02-28T17:59:12;8.43;;;5.57;;
12972;SDS011;6551;51.056;9.466;2023-02-28T18:01:40;7.83;;;5.93;;
12972;SDS011;6551;51.056;9.466;2023-02-28T18:04:09;9.07;;;5.67;;
12972;SDS011;6551;51.056;9.466;2023-02-28T18:06:44;6.93;;;5.27;;
12972;SDS011;6551;51.056;9.466;2023-02-28T18:09:18;10.93;;;6.67;;
12972;SDS011;6551;51.056;9.466;2023-02-28T18:11:50;9.33;;;5.10;;
12972;SDS011;6551;51.056;9.466;2023-02-28T18:14:18;10.23;;;5.70;;
12972;SDS011;6551;51.056;9.466;2023-02-28T18:16:47;7.97;;;5.63;;
12972;SDS011;6551;51.056;9.466;2023-02-28T18:19:15;6.60;;;4.93;;
12972;SDS011;6551;51.056;9.466;2023-02-28T18:21:43;6.50;;;5.20;;
12972;SDS011;6551;51.056;9.466;2023-02-28T18:24:13;10.80;;;5.90;;
12972;SDS011;6551;51.056;9.466;2023-02-28T18:26:40;8.53;;;5.40;;